• Join FlightAware (Why Join?)
  • Login
  • US Flag 
08:27PM EDT


 

Airport Tracker/Info


-or-


 

Live Flight TrackerFlight Track Log ✈ KLM1199 ✈ 17-Jul-2013 ✈ EHAM / AMS - ENZV / SVG

Flight Track Log - Related Links

Times and Time Zones

All times are in EDT time to prevent confusion due to time zone crossing. See the KLM1199 flight status page for this flight to view local times or setup timezone preferences in your user account.

Time Position Orientation Groundspeed Altitude Reporting Facility
EDT Latitude Longitude Course Direction KTS MPH feet Rate Location/Type
03:53AM 52.3230 4.7300 317° Northwest 30 35  Level FlightAware
03:54AM 52.3260 4.7270 329° Northwest 28 32 120 Level FlightAware
03:54AM 52.3280 4.7240 317° Northwest 28 32 120 Level FlightAware
03:55AM 52.3310 4.7150 299° West 12 14 120 Level FlightAware
03:56AM 52.3310 4.7140 270° West 12 14 120 Level FlightAware
03:56AM 52.3290 4.7120 211° Southwest 6 7 180 Level FlightAware
03:57AM 52.3290 4.7110 270° West 2 2 180 Level FlightAware
03:57AM 52.3290 4.7100 270° West 180 Level FlightAware
03:59AM 52.3290 4.7090 270° West 5 6 240 Level FlightAware
04:01AM 52.4838 4.7277 North  Level Estimated
04:01AM 52.3530 4.7110 North  Level FlightAware
04:02AM 52.3790 4.7130 North 166 191 1,100 2,400 Climbing FlightAware
04:02AM 52.3980 4.7150 North 166 191 2,200 2,700 Climbing FlightAware
04:02AM 52.4100 4.7160 North 161 185 2,900 2,460 Climbing FlightAware
04:03AM 52.4440 4.6990 343° North 220 253 4,500 2,160 Climbing FlightAware
04:03AM 52.4590 4.6730 313° West 250 288 5,100 2,340 Climbing FlightAware
04:04AM 52.4820 4.6370 316° Northwest 274 315 6,300 3,360 Climbing FlightAware
04:05AM 52.5360 4.5610 319° Northwest 286 329 9,600 3,000 Climbing FlightAware
04:05AM 52.5840 4.5160 330° Northwest 321 369 11,000 1,920 Climbing FlightAware
04:06AM 52.6400 4.4630 330° Northwest 369 425 12,200 2,340 Climbing FlightAware
04:07AM 52.7040 4.4030 330° Northwest 378 435 14,200 2,580 Climbing FlightAware
04:07AM 52.7520 4.3410 322° Northwest 394 453 15,700 2,520 Climbing FlightAware
04:08AM 52.7730 4.2880 303° West 405 466 16,600 2,880 Climbing FlightAware
04:08AM 52.8150 4.1640 299° West 415 478 18,600 2,580 Climbing FlightAware
04:09AM 52.8510 4.0610 300° West 423 487 20,200 2,400 Climbing FlightAware
04:10AM 52.9060 3.8960 299° West 436 502 22,400 2,220 Climbing FlightAware
04:10AM 52.9470 3.7710 299° West 447 514 23,800 1,980 Climbing FlightAware
04:11AM 52.9870 3.6500 299° West 451 519 25,200 1,920 Climbing FlightAware
04:12AM 53.0480 3.5480 315° West 464 534 26,500 1,980 Climbing FlightAware
04:12AM 53.0810 3.5280 340° North 467 537 27,200 2,100 Climbing FlightAware
04:13AM 53.1720 3.4750 341° North 468 539 28,700 1,920 Climbing FlightAware
04:14AM 53.2540 3.4270 341° North 471 542 29,900 1,920 Climbing FlightAware
04:14AM 53.3520 3.3700 341° North 471 542 31,400 1,860 Climbing FlightAware
04:15AM 53.4280 3.3270 341° North 469 540 32,600 1,920 Climbing FlightAware
04:16AM 53.5150 3.2850 344° North 470 541 33,900 1,980 Climbing FlightAware
04:16AM 53.5780 3.2910 North 470 541 34,900 1,620 Climbing FlightAware
04:17AM 53.6650 3.3240 13° North 462 532 35,900 1,500 Climbing FlightAware
04:18AM 53.7540 3.3580 13° North 462 532 37,000 1,560 Climbing FlightAware
04:18AM 53.8230 3.3830 12° North 458 527 37,900 1,260 Climbing FlightAware
04:19AM 53.9120 3.4170 13° North 448 516 38,700 540 Climbing FlightAware
04:20AM 54.0450 3.4690 13° North 456 525 39,000 120 Climbing FlightAware
04:21AM 54.1340 3.5030 13° North 456 525 39,000  Level FlightAware
04:21AM 54.2350 3.5420 13° North 457 526 39,000  Level FlightAware
04:22AM 54.2850 3.5610 13° North 456 525 39,000  Level FlightAware
04:23AM 54.4060 3.6080 13° North 457 526 39,000  Level FlightAware
04:24AM 54.4870 3.6390 13° North 457 526 39,000  Level FlightAware
04:24AM 54.5490 3.6630 13° North 457 526 39,000  Level FlightAware
04:25AM 54.6810 3.7140 13° North 457 526 39,000  Level FlightAware
04:26AM 54.7660 3.7500 14° North 457 526 39,000  Level FlightAware
04:27AM 54.8820 3.7960 13° North 449 517 39,000  Level FlightAware
04:27AM 54.9700 3.8310 13° North 449 517 39,000  Level FlightAware
04:28AM 55.0350 3.8580 13° North 449 517 39,000  Level FlightAware
04:29AM 55.1370 3.8980 13° North 449 517 39,000  Level FlightAware
04:29AM 55.2250 3.9340 13° North 450 518 39,000  Level FlightAware
04:30AM 55.3270 3.9760 13° North 458 527 39,000  Level FlightAware
04:31AM 55.4180 4.0130 13° North 459 528 39,000  Level FlightAware
04:32AM 55.5060 4.0490 13° North 460 529 39,000  Level FlightAware
04:33AM 55.6150 4.0950 13° North 461 531 39,000  Level FlightAware
04:34AM 55.7410 4.1470 13° North 461 531 39,000  Level FlightAware
04:34AM 55.8470 4.1920 13° North 462 532 39,000  Level FlightAware
04:35AM 55.9690 4.2430 13° North 462 532 39,000  Level FlightAware
04:36AM 56.0280 4.2690 14° North 462 532 39,000  Level FlightAware
04:37AM 56.1450 4.3170 13° North 460 529 39,000  Level FlightAware
04:37AM 56.2220 4.3510 14° North 459 528 39,000  Level FlightAware
04:38AM 56.3120 4.3890 13° North 458 527 39,000  Level FlightAware
04:39AM 56.4070 4.4300 13° North 457 526 39,000  Level FlightAware
04:40AM 56.4780 4.4610 14° North 455 524 39,000  Level FlightAware
04:40AM 56.5750 4.5030 13° North 453 521 39,000  Level FlightAware
04:41AM 56.6580 4.5390 13° North 451 519 39,000  Level FlightAware
04:42AM 56.7450 4.5770 13° North 450 518 39,000  Level FlightAware
04:42AM 56.8250 4.6130 14° North 448 516 39,000  Level FlightAware
04:43AM 56.9140 4.6520 13° North 447 514 39,000  Level FlightAware
04:44AM 56.9940 4.6880 14° North 447 514 39,000  Level FlightAware
04:45AM 57.0830 4.7280 14° North 446 513 39,000  Level FlightAware
04:45AM 57.1680 4.7660 14° North 445 512 39,000 -720 Level FlightAware
04:46AM 57.2550 4.8050 14° North 447 514 38,000 -2,100 Descending FlightAware
04:47AM 57.3360 4.8430 14° North 452 520 36,100 -3,000 Descending FlightAware
04:47AM 57.4270 4.8830 13° North 456 525 33,800 -3,360 Descending FlightAware
04:48AM 57.5070 4.9200 14° North 467 537 31,400 -3,840 Descending FlightAware
04:49AM 57.5920 4.9590 14° North 477 549 28,700 -3,600 Descending FlightAware
04:49AM 57.6870 5.0030 14° North 466 536 26,400 -2,760 Descending FlightAware
04:50AM 57.7770 5.0450 14° North 440 506 24,700 -2,520 Descending FlightAware
04:51AM 57.8460 5.0770 14° North 431 496 23,100 -3,120 Descending FlightAware
04:51AM 57.9240 5.1130 14° North 433 498 20,800 -3,180 Descending FlightAware
04:52AM 58.0050 5.1510 14° North 424 488 18,800 -2,880 Descending FlightAware
04:53AM 58.0800 5.1870 14° North 415 478 16,900 -2,700 Descending FlightAware
04:53AM 58.1470 5.2190 14° North 404 465 15,400 -1,800 Descending FlightAware
04:54AM 58.2240 5.2560 14° North 384 442 14,500 -1,080 Descending FlightAware
04:55AM 58.2920 5.2880 14° North 383 441 13,900 -1,020 Descending FlightAware
04:55AM 58.3600 5.3210 14° North 384 442 13,200 -1,020 Descending FlightAware
04:56AM 58.4380 5.3420 North 377 434 12,500 -1,440 Descending FlightAware
04:57AM 58.5140 5.3550 North 368 423 11,100 -1,500 Descending FlightAware
04:58AM 58.5820 5.3660 North 335 386 10,400 -840 Descending FlightAware
04:58AM 58.6320 5.3750 North 308 354 10,100 -720 Descending FlightAware
04:59AM 58.6680 5.3810 North 296 341 9,700 -1,260 Descending FlightAware
04:59AM 58.7110 5.3890 North 291 335 8,900 -900 Descending FlightAware
05:00AM 58.7920 5.4030 North 288 331 8,300 -1,380 Descending FlightAware
05:02AM 58.9250 5.4270 North 278 320 4,900 -1,680 Descending FlightAware
05:03AM 58.9730 5.4350 North 256 295 4,500 -900 Descending FlightAware
05:03AM 59.0060 5.4510 14° North 241 277 4,100 -900 Descending FlightAware
05:03AM 59.0130 5.4690 53° Northeast 238 274 3,900 -840 Descending FlightAware
05:04AM 59.0170 5.5120 80° East 228 262 3,700 -720 Descending FlightAware
05:04AM 59.0180 5.5580 88° East 214 246 3,400 -1,080 Descending FlightAware
05:04AM 59.0180 5.5900 90° East 210 242 3,000 -1,200 Descending FlightAware
05:04AM 59.0140 5.6050 117° Southeast 208 239 2,900 -1,380 Descending FlightAware
05:05AM 58.9930 5.6380 141° Southeast 181 208 2,100 -1,500 Descending FlightAware
05:06AM 58.9580 5.6350 183° South 171 197 1,100 -1,260 Descending FlightAware
05:06AM 58.9360 5.6360 179° South 148 170 600 -960 Descending FlightAware
05:06AM 58.9250 5.6370 177° South 139 160 400 -780 Descending FlightAware
05:07AM 58.8970 5.6370 180° South 137 158 -540 Descending FlightAware
05:08AM 58.8780 5.6380 178° South 57 66  Level FlightAware
05:09AM 58.8770 5.6360 226° Southwest 13 15  Level FlightAware
05:09AM 58.8780 5.6330 303° West 12 14  Level FlightAware
05:10AM 58.8800 5.6340 14° North 6 7  Level FlightAware
05:10AM 58.8800 5.6320 270° West 10 12  Level FlightAware
05:13AM 58.8767 5.6378 138° Southeast  Level Estimated
05:14AM 58.8767 5.6378 199° South  Level Estimated
05:15AM 58.8767 5.6378 199° South  Level Estimated